Etusivu
METAR-TAF:

METAR-TAF

Lentoasemat :

Childress, Texas, Yhdysvallat

Leveyspiiri: 34-25-39N, Pituuspiiri: 100-17-00W, korkeus merenpinnasta: 595 m

Tämänhetkinen sää

Tämä raportti tehtiin 31 minuuttia sitten, kello 17.53 UTC
Tuuli 8 kn idästä/koillisesta puuskistuen 15 kn:hen
Lämpötila 28°C
Kosteus 42%
Ilmanpaine 1025 hPa
Näkyvyys: 16.1 km
Muutamia pilviä 5000 ft:n korkeudessa

METAR: KCDS 231753Z AUTO 06008G15KT 10SM FEW050 28/14 A3028 RMK AO2 SLP228 T02830139 10283 20194 58011

Aika: 13:24 (18:24 UTC)

Sääennuste

Tämä raportti tehtiin 1 tunti ja 4 minuuttia sitten, kello 17.20 UTC
Ennuste voimassa 23. päivästä klo 18 UTC - 24. päivään klo 18 UTC
Tuuli 5 kn eri suunnista
Näkyvyys: 10 km
Hajanaisia pilviä 25000 ft:n korkeudessa

TAF: KCDS 231720Z 2318/2418 VRB05KT P6SM SCT250

Säähavainnot ja -ennusteet yli 4000 lentoasemalta (METAR- ja TAF-raportit).

Käytössä olevat sääasemat on merkitty karttaan keltaisilla ja punaisilla pisteillä.

Aseta hiiri pisteen päälle nähdäksesi sääaseman nimen.

Klikkaa sitten nähdäksesi säähavainnot ja -ennusteet.

Kartan vaihtaminen: klikkaa mustalla rastilla varustettuja vihreitä pisteitä, niin voit zoomata sisään; viivalla varustettua vihreää pistettä, niin voit zoomata ulos tai vihreitä nuolia, niin pääset viereisille kartoille.


METAR-TAF: